Time;durP1;ratioP1;P1;durP2;ratioP2;P2;SDS_P1;SDS_P2;PMS_P1;PMS_P2;Temp;Humidity;BMP_temperature;BMP_pressure;BME280_temperature;BME280_humidity;BME280_pressure;Samples;Min_cycle;Max_cycle;Signal;HPM_P1;HPM_P2
2024/02/23 00:01:50;;;;;;;0.10;0.08;;;5.70;76.00;;;;;;4957269;28;20118;-76
2024/02/23 00:04:18;;;;;;;0.10;0.00;;;5.20;78.00;;;;;;4974531;28;20469;-75
2024/02/23 00:06:43;;;;;;;0.40;0.10;;;4.60;80.20;;;;;;4957248;28;20527;-75
2024/02/23 00:09:09;;;;;;;0.75;0.00;;;4.20;81.90;;;;;;4974185;28;20023;-74
2024/02/23 00:11:39;;;;;;;2.13;0.20;;;3.90;83.80;;;;;;4957170;28;20069;-75
2024/02/23 00:14:05;;;;;;;0.65;0.10;;;3.80;84.30;;;;;;4957131;28;20081;-74
2024/02/23 00:16:30;;;;;;;0.20;0.13;;;3.60;85.30;;;;;;4956806;28;20043;-74
2024/02/23 00:18:56;;;;;;;0.20;0.10;;;3.60;85.30;;;;;;4956934;28;20126;-74
2024/02/23 00:21:21;;;;;;;0.40;0.00;;;3.50;85.30;;;;;;4956934;28;20019;-74
2024/02/23 00:23:47;;;;;;;0.20;0.10;;;3.60;84.90;;;;;;4956937;28;20551;-73
2024/02/23 00:26:12;;;;;;;0.10;0.00;;;3.50;85.00;;;;;;4956724;28;20023;-75
2024/02/23 00:28:38;;;;;;;0.98;0.20;;;3.50;84.50;;;;;;4973503;28;20033;-72
2024/02/23 00:31:03;;;;;;;0.05;0.00;;;3.50;84.90;;;;;;4956377;28;20019;-72
2024/02/23 00:33:29;;;;;;;0.50;0.20;;;3.60;84.90;;;;;;4958630;28;20109;-74
2024/02/23 00:35:55;;;;;;;0.28;0.10;;;3.50;84.90;;;;;;4960606;28;20117;-73
2024/02/23 00:38:20;;;;;;;0.68;0.10;;;3.50;84.80;;;;;;4977918;28;20030;-73
2024/02/23 00:40:46;;;;;;;0.13;0.10;;;3.60;84.70;;;;;;4977846;28;20038;-74
2024/02/23 00:43:12;;;;;;;0.85;0.43;;;3.70;85.60;;;;;;4977846;28;20031;-73
2024/02/23 00:45:37;;;;;;;0.45;0.10;;;3.70;84.60;;;;;;4960253;28;20042;-73
2024/02/23 00:48:03;;;;;;;1.17;0.47;;;3.70;84.30;;;;;;4960666;28;20035;-74
2024/02/23 00:50:29;;;;;;;0.00;0.00;;;3.70;84.80;;;;;;4977676;28;20026;-73
2024/02/23 00:52:54;;;;;;;0.30;0.10;;;3.80;84.50;;;;;;4960625;28;20122;-75
2024/02/23 00:55:20;;;;;;;1.33;0.10;;;3.80;85.10;;;;;;4977641;28;20480;-74
2024/02/23 00:57:45;;;;;;;0.03;0.00;;;3.90;84.60;;;;;;4977671;28;20058;-73
2024/02/23 01:00:11;;;;;;;0.00;0.00;;;3.90;85.00;;;;;;4960388;28;20035;-74
2024/02/23 01:02:38;;;;;;;0.13;0.10;;;3.90;85.10;;;;;;4976302;28;20023;-74
2024/02/23 01:05:04;;;;;;;0.20;0.00;;;4.00;84.70;;;;;;4977287;28;20099;-74
2024/02/23 01:07:30;;;;;;;0.52;0.00;;;4.00;84.50;;;;;;4960337;28;20057;-74
2024/02/23 01:09:56;;;;;;;0.45;0.10;;;4.10;84.40;;;;;;4960249;28;20054;-74
2024/02/23 01:12:21;;;;;;;0.20;0.10;;;4.20;84.10;;;;;;4960212;28;20484;-74
2024/02/23 01:14:48;;;;;;;0.00;0.00;;;4.20;83.90;;;;;;4977299;28;20038;-74
2024/02/23 01:17:15;;;;;;;0.00;0.00;;;4.30;83.70;;;;;;4977171;28;20394;-74
2024/02/23 01:19:41;;;;;;;0.00;0.00;;;4.40;83.40;;;;;;4977177;28;20034;-73
2024/02/23 01:22:06;;;;;;;0.10;0.00;;;4.50;83.50;;;;;;4976300;28;20114;-73
2024/02/23 01:24:32;;;;;;;0.17;0.00;;;4.60;82.30;;;;;;4960117;28;20173;-73
2024/02/23 01:26:58;;;;;;;0.00;0.00;;;4.70;82.10;;;;;;4960121;28;20173;-73
2024/02/23 01:29:25;;;;;;;0.20;0.10;;;4.70;82.40;;;;;;4959979;28;20034;-74
2024/02/23 01:31:51;;;;;;;0.08;0.00;;;4.80;82.30;;;;;;4977184;28;20033;-74
2024/02/23 01:34:17;;;;;;;0.10;0.00;;;4.90;81.50;;;;;;4959615;28;20034;-75
2024/02/23 01:36:43;;;;;;;0.20;0.00;;;4.90;80.50;;;;;;4976990;28;20045;-74
2024/02/23 01:39:09;;;;;;;0.00;0.00;;;4.90;78.80;;;;;;4978114;28;20035;-73
2024/02/23 01:41:35;;;;;;;0.68;0.25;;;5.00;78.50;;;;;;4977326;28;20019;-73
2024/02/23 01:44:01;;;;;;;1.85;0.15;;;5.00;78.40;;;;;;4959709;28;20053;-73
2024/02/23 01:46:26;;;;;;;0.60;0.10;;;5.00;76.60;;;;;;4960885;28;20031;-74
2024/02/23 01:48:52;;;;;;;0.10;0.10;;;5.00;77.20;;;;;;4959565;28;20094;-73
2024/02/23 01:51:18;;;;;;;1.70;0.20;;;5.00;76.10;;;;;;4959681;28;20510;-73
2024/02/23 01:53:44;;;;;;;0.60;0.20;;;5.00;76.60;;;;;;4959319;28;20027;-74
2024/02/23 01:56:11;;;;;;;0.38;0.15;;;5.00;75.60;;;;;;4959366;28;20038;-74
2024/02/23 01:58:37;;;;;;;0.68;0.20;;;5.00;76.30;;;;;;4976529;28;20479;-73
2024/02/23 02:01:03;;;;;;;0.85;0.30;;;5.00;75.40;;;;;;4976397;28;20035;-74
2024/02/23 02:03:29;;;;;;;1.95;0.30;;;5.00;76.00;;;;;;4976136;28;20031;-73
2024/02/23 02:05:58;;;;;;;0.88;0.10;;;4.90;74.80;;;;;;4959403;28;20058;-74
2024/02/23 02:08:25;;;;;;;1.70;0.20;;;5.00;74.80;;;;;;4975281;28;20170;-74
2024/02/23 02:10:50;;;;;;;1.00;0.05;;;5.00;75.20;;;;;;4976144;28;20037;-73
2024/02/23 02:13:16;;;;;;;0.75;0.15;;;5.00;75.30;;;;;;4959022;28;20027;-74
2024/02/23 02:15:43;;;;;;;0.00;0.00;;;5.00;75.40;;;;;;4958987;28;20046;-74
2024/02/23 02:18:09;;;;;;;3.90;0.43;;;5.00;73.70;;;;;;4976280;28;20025;-73
2024/02/23 02:20:36;;;;;;;0.30;0.20;;;5.00;74.80;;;;;;4976034;28;20125;-73
2024/02/23 02:23:02;;;;;;;1.45;0.20;;;5.00;73.80;;;;;;4976113;28;20019;-73
2024/02/23 02:25:27;;;;;;;2.30;0.20;;;4.90;75.40;;;;;;4975922;28;20093;-74
2024/02/23 02:27:53;;;;;;;0.75;0.15;;;4.90;75.50;;;;;;4975687;28;20481;-73
2024/02/23 02:30:19;;;;;;;1.38;0.25;;;4.90;76.10;;;;;;4958321;28;20568;-73
2024/02/23 02:32:45;;;;;;;2.63;0.40;;;4.90;75.60;;;;;;4958835;28;20054;-73
2024/02/23 02:35:14;;;;;;;1.60;0.20;;;4.90;76.20;;;;;;4958751;28;20054;-72
2024/02/23 02:37:40;;;;;;;1.25;0.10;;;4.90;75.70;;;;;;4975790;28;20054;-73
2024/02/23 02:40:06;;;;;;;0.38;0.17;;;4.90;76.00;;;;;;4975756;28;20070;-74
2024/02/23 02:42:33;;;;;;;0.65;0.10;;;4.90;75.30;;;;;;4958329;28;20033;-73
2024/02/23 02:44:58;;;;;;;4.57;0.57;;;4.90;75.90;;;;;;4975552;28;20041;-74
2024/02/23 02:47:24;;;;;;;1.90;0.20;;;4.90;75.50;;;;;;4958233;28;20023;-73
2024/02/23 02:49:51;;;;;;;3.90;0.47;;;4.90;75.20;;;;;;4958432;28;20376;-73
2024/02/23 02:52:16;;;;;;;2.08;0.30;;;4.80;74.70;;;;;;4975696;28;20042;-73
2024/02/23 02:54:42;;;;;;;1.50;0.30;;;4.80;74.80;;;;;;4958466;28;20031;-73
2024/02/23 02:57:07;;;;;;;2.65;0.32;;;4.80;74.90;;;;;;4974803;28;20042;-72
2024/02/23 02:59:36;;;;;;;1.35;0.20;;;4.80;75.00;;;;;;4958294;28;20053;-72
2024/02/23 03:02:01;;;;;;;1.08;0.22;;;4.70;74.20;;;;;;4958331;28;20163;-73
2024/02/23 03:04:27;;;;;;;0.73;0.28;;;4.80;74.10;;;;;;4958318;28;20114;-73
2024/02/23 03:06:53;;;;;;;1.35;0.50;;;4.80;73.70;;;;;;4958102;28;20042;-73
2024/02/23 03:09:18;;;;;;;3.55;0.40;;;4.80;72.90;;;;;;4974970;28;20035;-73
2024/02/23 03:11:44;;;;;;;2.72;0.40;;;4.80;73.10;;;;;;4958108;28;20031;-73
2024/02/23 03:14:09;;;;;;;3.38;0.57;;;4.80;73.40;;;;;;4958029;28;20030;-73
2024/02/23 03:16:37;;;;;;;1.95;0.40;;;4.80;72.70;;;;;;4957913;28;20389;-73
2024/02/23 03:19:02;;;;;;;2.55;0.50;;;4.80;72.90;;;;;;4957840;28;20490;-73
2024/02/23 03:21:28;;;;;;;1.23;0.28;;;4.70;73.10;;;;;;4974013;28;20125;-73
2024/02/23 03:23:53;;;;;;;0.75;0.20;;;4.70;72.70;;;;;;4957909;28;20026;-73
2024/02/23 03:26:19;;;;;;;2.55;0.38;;;4.70;73.50;;;;;;4957852;28;20033;-73
2024/02/23 03:28:45;;;;;;;1.80;0.20;;;4.70;73.00;;;;;;4957795;28;20027;-73
2024/02/23 03:31:10;;;;;;;1.88;0.60;;;4.70;73.00;;;;;;4957803;28;20027;-73
2024/02/23 03:33:36;;;;;;;2.25;0.75;;;4.70;72.60;;;;;;4957710;28;20027;-72
2024/02/23 03:36:03;;;;;;;2.25;0.40;;;4.70;72.90;;;;;;4974799;28;20130;-74
2024/02/23 03:38:29;;;;;;;1.63;0.35;;;4.70;72.60;;;;;;4957462;28;20030;-74
2024/02/23 03:40:55;;;;;;;2.50;0.30;;;4.70;72.80;;;;;;4957546;28;20031;-72
2024/02/23 03:43:21;;;;;;;3.55;0.65;;;4.70;72.00;;;;;;4957433;28;20023;-74
2024/02/23 03:45:47;;;;;;;3.80;0.45;;;4.70;71.90;;;;;;4957479;28;20041;-74
2024/02/23 03:48:13;;;;;;;3.20;0.70;;;4.70;71.80;;;;;;4957438;28;20045;-73
2024/02/23 03:50:38;;;;;;;3.80;0.60;;;4.70;72.40;;;;;;4957451;28;20031;-73
2024/02/23 03:53:04;;;;;;;2.80;0.52;;;4.70;71.60;;;;;;4957359;28;20392;-73
2024/02/23 03:55:29;;;;;;;5.82;0.80;;;4.70;70.70;;;;;;4957129;28;20026;-72
2024/02/23 03:57:55;;;;;;;2.83;0.63;;;4.80;71.30;;;;;;4957122;28;20026;-73
2024/02/23 04:00:22;;;;;;;4.32;0.63;;;4.70;70.70;;;;;;4957218;28;20049;-73
2024/02/23 04:02:48;;;;;;;2.28;0.50;;;4.70;70.10;;;;;;4957196;28;20050;-73
2024/02/23 04:05:14;;;;;;;1.70;0.50;;;4.70;71.50;;;;;;4974282;28;20058;-73
2024/02/23 04:07:40;;;;;;;3.80;0.57;;;4.70;71.70;;;;;;4957065;28;20037;-74
2024/02/23 04:10:06;;;;;;;2.95;0.45;;;4.60;71.70;;;;;;4974240;28;20060;-74
2024/02/23 04:12:31;;;;;;;1.98;0.63;;;4.60;70.90;;;;;;4973054;28;20427;-74
2024/02/23 04:14:57;;;;;;;5.47;0.98;;;4.70;70.70;;;;;;4974175;28;20022;-73
2024/02/23 04:17:23;;;;;;;2.83;0.68;;;4.70;71.40;;;;;;4973921;28;20071;-73
2024/02/23 04:19:48;;;;;;;2.75;0.57;;;4.80;71.40;;;;;;4957046;28;20030;-73
2024/02/23 04:22:14;;;;;;;3.80;0.65;;;4.70;71.60;;;;;;4956915;28;20023;-73
2024/02/23 04:24:40;;;;;;;2.25;0.40;;;4.60;71.80;;;;;;4956880;28;20054;-73
2024/02/23 04:27:07;;;;;;;1.90;0.73;;;4.70;72.30;;;;;;4972925;28;20476;-73
2024/02/23 04:29:33;;;;;;;3.33;0.75;;;4.60;72.10;;;;;;4973959;28;20034;-73
2024/02/23 04:32:00;;;;;;;3.13;0.50;;;4.50;71.70;;;;;;4957034;28;20022;-72
2024/02/23 04:34:25;;;;;;;1.50;0.43;;;4.60;71.80;;;;;;4973039;28;20139;-73
2024/02/23 04:36:51;;;;;;;5.68;0.60;;;4.60;72.20;;;;;;4973980;28;20478;-73
2024/02/23 04:39:17;;;;;;;2.50;0.73;;;4.60;72.30;;;;;;4958038;28;20384;-73
2024/02/23 04:41:42;;;;;;;4.75;0.88;;;4.60;71.80;;;;;;4957565;28;20487;-73
2024/02/23 04:44:08;;;;;;;1.92;0.50;;;4.60;72.10;;;;;;4973934;28;20514;-72
2024/02/23 04:46:34;;;;;;;2.05;0.30;;;4.60;70.20;;;;;;4973764;28;20019;-73
2024/02/23 04:49:00;;;;;;;3.88;0.88;;;4.60;71.20;;;;;;4956635;28;20027;-73
2024/02/23 04:51:26;;;;;;;5.55;0.50;;;4.60;70.60;;;;;;4972611;28;20027;-73
2024/02/23 04:53:51;;;;;;;3.97;0.50;;;4.50;69.90;;;;;;4956532;28;20050;-73
2024/02/23 04:56:17;;;;;;;4.82;0.75;;;4.50;70.70;;;;;;4973710;28;20089;-73
2024/02/23 04:58:43;;;;;;;3.58;0.70;;;4.50;69.90;;;;;;4956517;28;20069;-73
2024/02/23 05:01:09;;;;;;;3.50;0.82;;;4.50;70.40;;;;;;4972264;28;20038;-73
2024/02/23 05:03:35;;;;;;;5.57;1.20;;;4.60;70.00;;;;;;4956511;28;20031;-73
2024/02/23 05:06:02;;;;;;;4.72;0.63;;;4.60;69.90;;;;;;4973550;28;20019;-73
2024/02/23 05:08:27;;;;;;;4.28;0.70;;;4.60;69.30;;;;;;4972537;28;20019;-73
2024/02/23 05:10:53;;;;;;;4.30;0.60;;;4.60;68.70;;;;;;4956546;28;20423;-73
2024/02/23 05:13:18;;;;;;;1.55;0.60;;;4.60;68.30;;;;;;4956452;28;20440;-73
2024/02/23 05:15:44;;;;;;;2.40;0.65;;;4.60;68.10;;;;;;4956274;28;20421;-73
2024/02/23 05:18:10;;;;;;;4.70;0.75;;;4.60;68.20;;;;;;4956190;28;20416;-73
2024/02/23 05:20:35;;;;;;;1.92;0.60;;;4.50;67.80;;;;;;4959559;28;20101;-74
2024/02/23 05:23:01;;;;;;;1.95;0.80;;;4.50;68.10;;;;;;4959941;28;20503;-73
2024/02/23 05:25:26;;;;;;;4.90;0.75;;;4.50;69.00;;;;;;4959574;28;20376;-73
2024/02/23 05:27:52;;;;;;;7.40;1.35;;;4.50;68.70;;;;;;4959814;28;20077;-73
2024/02/23 05:30:18;;;;;;;3.00;0.88;;;4.60;68.00;;;;;;4960003;28;20492;-73
2024/02/23 05:32:43;;;;;;;6.38;1.80;;;4.50;68.60;;;;;;4976952;28;20026;-73
2024/02/23 05:35:09;;;;;;;4.20;1.08;;;4.40;69.50;;;;;;4959904;28;20127;-73
2024/02/23 05:37:35;;;;;;;3.85;0.98;;;4.30;69.50;;;;;;4959763;28;20023;-73
2024/02/23 05:40:04;;;;;;;7.20;0.82;;;4.30;69.50;;;;;;4976943;28;20042;-74
2024/02/23 05:42:30;;;;;;;3.30;0.93;;;4.30;68.80;;;;;;4959553;28;20027;-74
2024/02/23 05:44:55;;;;;;;5.60;1.00;;;4.30;69.40;;;;;;4959646;28;20122;-74
2024/02/23 05:47:21;;;;;;;1.88;0.57;;;4.20;69.00;;;;;;4976723;28;20034;-74
2024/02/23 05:49:47;;;;;;;5.72;1.00;;;4.20;69.10;;;;;;4976604;28;20031;-74
2024/02/23 05:52:12;;;;;;;4.85;1.35;;;4.20;69.10;;;;;;4976672;28;20476;-73
2024/02/23 05:54:38;;;;;;;4.50;0.43;;;4.20;69.10;;;;;;4976409;28;20031;-74
2024/02/23 05:57:04;;;;;;;2.45;0.60;;;4.20;69.60;;;;;;4976655;28;20444;-73
2024/02/23 05:59:30;;;;;;;5.15;0.63;;;4.20;70.80;;;;;;4976383;28;20126;-74
2024/02/23 06:01:56;;;;;;;3.97;0.88;;;4.20;69.80;;;;;;4976470;28;20055;-74
2024/02/23 06:04:23;;;;;;;5.20;0.82;;;4.20;69.80;;;;;;4976425;28;20023;-74
2024/02/23 06:06:48;;;;;;;2.58;0.60;;;4.10;68.40;;;;;;4976209;28;20526;-75
2024/02/23 06:09:14;;;;;;;3.42;0.70;;;4.10;67.60;;;;;;4958927;28;20075;-73
2024/02/23 06:11:39;;;;;;;3.03;0.50;;;4.10;66.90;;;;;;4976330;28;20057;-73
2024/02/23 06:14:05;;;;;;;2.25;0.70;;;4.10;66.00;;;;;;4958824;28;20058;-74
2024/02/23 06:16:31;;;;;;;1.67;0.60;;;4.10;65.80;;;;;;4976238;28;20043;-72
2024/02/23 06:18:56;;;;;;;4.57;0.45;;;4.10;66.30;;;;;;4976106;28;20031;-73
2024/02/23 06:21:22;;;;;;;2.97;1.25;;;4.10;66.60;;;;;;4976361;28;20110;-74
2024/02/23 06:23:47;;;;;;;2.95;0.68;;;4.10;67.20;;;;;;4977928;28;20022;-74
2024/02/23 06:26:13;;;;;;;5.70;0.93;;;4.10;67.80;;;;;;4976219;28;20388;-74
2024/02/23 06:28:41;;;;;;;3.13;0.63;;;4.20;68.20;;;;;;4975651;28;20026;-74
2024/02/23 06:31:07;;;;;;;2.80;0.70;;;4.30;68.50;;;;;;4974493;28;20033;-74
2024/02/23 06:33:32;;;;;;;3.95;0.70;;;4.30;69.00;;;;;;4975909;28;20395;-76
2024/02/23 06:35:58;;;;;;;4.72;0.85;;;4.40;69.10;;;;;;4977556;28;20086;-74
2024/02/23 06:38:23;;;;;;;2.15;0.98;;;4.40;68.70;;;;;;4980603;28;20322;-75
2024/02/23 06:40:49;;;;;;;3.95;0.85;;;4.50;68.20;;;;;;4976812;28;20102;-74
2024/02/23 06:43:14;;;;;;;4.53;1.65;;;4.50;69.00;;;;;;4975728;28;20019;-74
2024/02/23 06:45:40;;;;;;;3.72;1.80;;;4.50;69.60;;;;;;4975432;28;20031;-74
2024/02/23 06:48:06;;;;;;;2.10;1.23;;;4.50;70.30;;;;;;4975295;28;20431;-73
2024/02/23 06:50:32;;;;;;;3.70;1.15;;;4.60;71.10;;;;;;4975256;28;20054;-73
2024/02/23 06:52:57;;;;;;;3.25;1.15;;;4.60;71.80;;;;;;4974090;28;20046;-74
2024/02/23 06:55:23;;;;;;;2.42;1.00;;;4.60;72.50;;;;;;4975287;28;20078;-74
2024/02/23 06:57:48;;;;;;;2.60;1.00;;;4.50;72.90;;;;;;4975193;28;20078;-74
2024/02/23 07:00:15;;;;;;;5.90;0.80;;;4.50;73.30;;;;;;4975108;28;20043;-74
2024/02/23 07:02:40;;;;;;;3.35;1.33;;;4.50;73.70;;;;;;4957638;28;20122;-73
2024/02/23 07:05:06;;;;;;;1.92;1.02;;;4.50;74.20;;;;;;4957813;28;20031;-73
2024/02/23 07:07:33;;;;;;;2.38;1.08;;;4.40;74.70;;;;;;4957618;28;20023;-74
2024/02/23 07:09:59;;;;;;;5.28;1.67;;;4.30;75.30;;;;;;4974919;28;20460;-73
2024/02/23 07:12:27;;;;;;;2.35;1.17;;;4.30;75.60;;;;;;4975221;28;20477;-72
2024/02/23 07:14:53;;;;;;;2.15;1.00;;;4.30;75.80;;;;;;4958000;28;20117;-75
2024/02/23 07:17:19;;;;;;;5.47;1.05;;;4.30;76.10;;;;;;4974947;28;20072;-75
2024/02/23 07:19:44;;;;;;;3.90;1.10;;;4.30;76.10;;;;;;4974748;28;20112;-74
2024/02/23 07:22:10;;;;;;;7.38;1.50;;;4.40;76.10;;;;;;4974865;28;20031;-73
2024/02/23 07:24:40;;;;;;;5.65;1.23;;;4.40;74.50;;;;;;4974876;28;20035;-74
2024/02/23 07:27:06;;;;;;;5.25;1.00;;;4.40;71.20;;;;;;4975102;28;20015;-72
2024/02/23 07:29:31;;;;;;;2.70;1.02;;;4.40;70.70;;;;;;4974707;28;20149;-75
2024/02/23 07:31:57;;;;;;;3.50;1.10;;;4.40;71.00;;;;;;4973325;28;20073;-75
2024/02/23 07:34:22;;;;;;;4.40;1.38;;;4.50;71.30;;;;;;4974613;28;20046;-73
2024/02/23 07:36:51;;;;;;;4.70;1.25;;;4.50;67.80;;;;;;4974704;28;20027;-74
2024/02/23 07:39:16;;;;;;;6.03;1.27;;;4.60;64.70;;;;;;4980388;28;20094;-73
2024/02/23 07:41:42;;;;;;;3.22;1.05;;;4.60;63.10;;;;;;4993662;28;20067;-74
2024/02/23 07:44:07;;;;;;;4.75;1.15;;;4.60;63.00;;;;;;4993934;28;20647;-73
2024/02/23 07:46:33;;;;;;;7.78;0.90;;;4.50;63.20;;;;;;4993909;28;20033;-73
2024/02/23 07:48:58;;;;;;;3.50;0.73;;;4.40;64.10;;;;;;4996591;28;20069;-73
2024/02/23 07:51:24;;;;;;;5.45;0.82;;;4.30;63.90;;;;;;4993764;28;20080;-74
2024/02/23 07:53:49;;;;;;;8.23;1.00;;;4.40;63.20;;;;;;4993658;28;20022;-72
2024/02/23 07:56:16;;;;;;;4.43;0.80;;;4.30;64.40;;;;;;4993857;28;20033;-74
2024/02/23 07:58:42;;;;;;;4.85;1.08;;;4.40;63.50;;;;;;4975946;28;20030;-74
2024/02/23 08:01:07;;;;;;;4.22;0.90;;;4.30;63.80;;;;;;4993439;28;20040;-73
2024/02/23 08:03:33;;;;;;;3.22;0.77;;;4.40;63.10;;;;;;4993649;28;20050;-75
2024/02/23 08:05:58;;;;;;;7.88;1.10;;;4.40;62.90;;;;;;4993627;28;20034;-76
2024/02/23 08:08:26;;;;;;;4.88;1.05;;;4.40;63.30;;;;;;4993524;28;20153;-75
2024/02/23 08:10:51;;;;;;;7.45;1.10;;;4.50;63.40;;;;;;4993407;28;20034;-74
2024/02/23 08:13:17;;;;;;;4.72;0.80;;;4.70;72.80;;;;;;4993503;28;20033;-77
2024/02/23 08:15:43;;;;;;;6.80;1.35;;;5.00;73.10;;;;;;4993552;28;20407;-77
2024/02/23 08:18:10;;;;;;;8.25;1.20;;;5.20;65.40;;;;;;4993292;28;20019;-74
2024/02/23 08:20:36;;;;;;;5.28;1.05;;;5.30;61.80;;;;;;4993262;28;20469;-80
2024/02/23 08:23:01;;;;;;;4.43;1.13;;;5.50;62.20;;;;;;4993410;28;20054;-77
2024/02/23 08:25:29;;;;;;;12.15;1.45;;;5.50;61.30;;;;;;4993285;28;20026;-79
2024/02/23 08:27:56;;;;;;;5.20;1.35;;;5.50;59.30;;;;;;4993479;28;20019;-80
2024/02/23 08:30:21;;;;;;;5.03;1.48;;;5.40;61.60;;;;;;4993395;28;20033;-76
2024/02/23 08:32:47;;;;;;;11.35;1.23;;;5.70;61.20;;;;;;4993517;28;20023;-81
2024/02/23 08:35:13;;;;;;;3.30;0.90;;;5.70;58.90;;;;;;4993391;28;20030;-77
2024/02/23 08:37:39;;;;;;;6.22;1.13;;;5.50;59.50;;;;;;4993373;28;20041;-77
2024/02/23 08:40:06;;;;;;;6.05;1.13;;;5.80;60.80;;;;;;4993445;28;20475;-81
2024/02/23 08:42:32;;;;;;;7.18;1.15;;;5.90;60.10;;;;;;4993510;28;20483;-77
2024/02/23 08:44:57;;;;;;;8.43;2.05;;;6.00;60.10;;;;;;4993813;28;20142;-76
2024/02/23 08:47:23;;;;;;;5.75;1.40;;;6.00;59.50;;;;;;4975624;28;20018;-76
2024/02/23 08:49:48;;;;;;;4.68;1.27;;;5.60;59.00;;;;;;4993077;28;20391;-76
2024/02/23 08:52:14;;;;;;;5.78;1.45;;;5.40;60.00;;;;;;4993049;28;20034;-75
2024/02/23 08:54:39;;;;;;;8.88;1.58;;;5.30;60.10;;;;;;4995047;28;20026;-73
2024/02/23 08:57:05;;;;;;;4.60;0.93;;;5.20;59.50;;;;;;4996879;28;20028;-75
2024/02/23 08:59:30;;;;;;;10.63;2.05;;;4.90;60.80;;;;;;4996812;28;20109;-75
2024/02/23 09:01:56;;;;;;;6.85;1.20;;;4.70;62.20;;;;;;4996782;28;20360;-75
2024/02/23 09:04:22;;;;;;;5.13;1.55;;;4.70;61.60;;;;;;4997039;28;20390;-75
2024/02/23 09:06:50;;;;;;;8.10;1.58;;;4.60;63.20;;;;;;4996786;28;20030;-76
2024/02/23 09:09:15;;;;;;;4.50;0.85;;;4.60;63.90;;;;;;4982045;28;20435;-75
2024/02/23 09:11:41;;;;;;;9.75;1.63;;;4.60;63.10;;;;;;4996518;28;20110;-72
2024/02/23 09:14:06;;;;;;;8.35;1.70;;;4.60;63.00;;;;;;4996534;28;20034;-74
2024/02/23 09:16:32;;;;;;;5.88;1.60;;;4.70;63.60;;;;;;4996510;28;20057;-75
2024/02/23 09:18:57;;;;;;;10.18;1.90;;;4.80;64.00;;;;;;4996360;28;20041;-75
2024/02/23 09:21:23;;;;;;;7.07;1.75;;;4.90;64.50;;;;;;4996510;28;20026;-75
2024/02/23 09:23:48;;;;;;;5.72;1.73;;;5.00;64.50;;;;;;4996357;28;20031;-75
2024/02/23 09:26:14;;;;;;;6.88;1.40;;;5.10;64.30;;;;;;4996319;28;20022;-76
2024/02/23 09:28:44;;;;;;;5.53;1.42;;;5.20;64.70;;;;;;4996366;28;20033;-74
2024/02/23 09:31:10;;;;;;;9.23;1.42;;;5.40;63.90;;;;;;4963075;28;20436;-75
2024/02/23 09:33:36;;;;;;;8.85;1.42;;;5.50;62.80;;;;;;4976545;28;20062;-73
2024/02/23 09:36:02;;;;;;;8.05;1.10;;;5.70;61.90;;;;;;4976737;28;20043;-75
2024/02/23 09:38:27;;;;;;;5.40;1.00;;;5.80;59.00;;;;;;4976872;28;20142;-74
2024/02/23 09:40:53;;;;;;;8.10;1.55;;;6.00;59.50;;;;;;4959139;28;20035;-74
2024/02/23 09:43:22;;;;;;;6.80;1.55;;;6.10;60.60;;;;;;4976687;28;20034;-74
2024/02/23 09:45:51;;;;;;;4.53;1.15;;;6.10;61.70;;;;;;4976892;28;20027;-74
2024/02/23 09:48:19;;;;;;;6.45;1.70;;;6.10;61.20;;;;;;4976508;28;20029;-74
2024/02/23 09:50:46;;;;;;;3.75;1.50;;;6.00;60.10;;;;;;4976538;28;20031;-73
2024/02/23 09:53:13;;;;;;;7.15;1.83;;;5.90;60.40;;;;;;4975898;28;20023;-73
2024/02/23 09:55:39;;;;;;;6.40;1.27;;;5.90;61.70;;;;;;4958890;28;20481;-73
2024/02/23 09:58:06;;;;;;;5.05;1.20;;;5.90;61.70;;;;;;4976237;28;20023;-74
2024/02/23 10:00:33;;;;;;;8.13;1.70;;;5.90;61.20;;;;;;4976364;28;20070;-74
2024/02/23 10:02:58;;;;;;;4.38;1.40;;;5.80;61.70;;;;;;4976378;28;20035;-73
2024/02/23 10:05:29;;;;;;;6.28;1.50;;;5.70;62.60;;;;;;4975884;28;20077;-72
2024/02/23 10:07:56;;;;;;;9.73;1.65;;;5.80;62.50;;;;;;4976107;28;20098;-73
2024/02/23 10:10:29;;;;;;;10.25;2.22;;;5.90;62.80;;;;;;4975198;28;20022;-73
2024/02/23 10:12:55;;;;;;;10.95;2.10;;;5.90;62.80;;;;;;4958689;28;20089;-74
2024/02/23 10:15:20;;;;;;;9.25;1.30;;;6.00;63.30;;;;;;4975731;28;20031;-73
2024/02/23 10:17:46;;;;;;;8.32;1.77;;;6.10;64.00;;;;;;4958417;28;20035;-74
2024/02/23 10:20:11;;;;;;;10.70;2.13;;;6.10;63.60;;;;;;4975767;28;20039;-74
2024/02/23 10:22:37;;;;;;;10.50;2.13;;;6.00;62.10;;;;;;4958886;28;20035;-74
2024/02/23 10:25:02;;;;;;;8.88;1.70;;;6.00;63.60;;;;;;4975923;28;20037;-74
2024/02/23 10:27:28;;;;;;;5.13;1.17;;;6.10;63.40;;;;;;4975718;28;20023;-73
2024/02/23 10:29:54;;;;;;;3.25;0.90;;;6.00;62.70;;;;;;4975677;28;20034;-72
2024/02/23 10:32:22;;;;;;;6.07;1.55;;;6.00;64.20;;;;;;4978939;28;20027;-73
2024/02/23 10:34:51;;;;;;;7.18;1.80;;;6.10;63.60;;;;;;4975648;28;20038;-73
2024/02/23 10:37:17;;;;;;;8.02;1.27;;;6.10;64.30;;;;;;4975559;28;20026;-73
2024/02/23 10:39:43;;;;;;;7.80;1.85;;;6.20;64.00;;;;;;4975342;28;20039;-74
2024/02/23 10:42:09;;;;;;;12.00;1.85;;;6.40;63.60;;;;;;4975411;28;20047;-74
2024/02/23 10:44:36;;;;;;;7.68;1.90;;;6.50;63.50;;;;;;4975600;28;20026;-74
2024/02/23 10:47:04;;;;;;;8.82;1.73;;;6.50;61.10;;;;;;4975555;28;20034;-73
2024/02/23 10:49:30;;;;;;;10.20;1.70;;;6.60;59.10;;;;;;4975419;28;20494;-72
2024/02/23 10:51:56;;;;;;;7.95;1.88;;;6.60;59.90;;;;;;4975407;28;20459;-73
2024/02/23 10:54:22;;;;;;;11.07;1.95;;;6.70;57.80;;;;;;4957541;28;20452;-73
2024/02/23 10:56:50;;;;;;;8.13;1.90;;;6.60;59.40;;;;;;4975020;28;20027;-72
2024/02/23 10:59:18;;;;;;;10.55;2.15;;;6.50;58.60;;;;;;4975200;28;20476;-73
2024/02/23 11:01:56;;;;;;;7.15;2.08;;;6.50;61.00;;;;;;4974788;28;20062;-73
2024/02/23 11:04:23;;;;;;;9.05;1.88;;;6.40;61.10;;;;;;4974823;28;20026;-74
2024/02/23 11:06:50;;;;;;;6.38;1.50;;;6.40;61.10;;;;;;4975112;28;20031;-73
2024/02/23 11:09:15;;;;;;;11.13;2.10;;;6.40;61.00;;;;;;4974494;28;20391;-73
2024/02/23 11:11:55;;;;;;;8.63;2.20;;;6.40;61.70;;;;;;4957007;28;20034;-73
2024/02/23 11:14:31;;;;;;;8.57;1.80;;;6.40;62.50;;;;;;4957542;28;20030;-72
2024/02/23 11:16:57;;;;;;;8.27;1.63;;;6.50;61.40;;;;;;4973736;28;20047;-74
2024/02/23 11:19:35;;;;;;;4.93;1.73;;;6.70;61.10;;;;;;4974496;28;20046;-74
2024/02/23 11:22:02;;;;;;;6.63;1.75;;;6.90;60.40;;;;;;4957434;28;20502;-74
2024/02/23 11:24:31;;;;;;;12.00;2.67;;;7.00;59.80;;;;;;4957537;28;20041;-75
2024/02/23 11:26:58;;;;;;;6.25;1.90;;;7.10;60.40;;;;;;4957803;28;20023;-73
2024/02/23 11:29:27;;;;;;;8.93;2.10;;;7.20;59.40;;;;;;4957617;28;20039;-74
2024/02/23 11:31:56;;;;;;;10.73;1.83;;;7.20;59.10;;;;;;4974627;28;20030;-74
2024/02/23 11:34:27;;;;;;;9.63;2.28;;;7.20;59.70;;;;;;4974513;28;20109;-74
2024/02/23 11:36:53;;;;;;;8.93;2.17;;;7.30;58.80;;;;;;4957375;28;20034;-74
2024/02/23 11:39:19;;;;;;;8.48;2.05;;;7.30;58.60;;;;;;4974376;28;20027;-74
2024/02/23 11:41:50;;;;;;;8.18;1.88;;;7.40;58.20;;;;;;4974372;28;20085;-74
2024/02/23 11:44:19;;;;;;;5.70;1.55;;;7.50;57.30;;;;;;4957292;28;20033;-74
2024/02/23 11:46:46;;;;;;;11.88;2.45;;;7.80;57.10;;;;;;4957410;28;20117;-74
2024/02/23 11:49:12;;;;;;;9.60;2.13;;;8.00;56.30;;;;;;4957212;28;20081;-75
2024/02/23 11:51:38;;;;;;;10.10;2.00;;;8.40;56.40;;;;;;4974044;28;20148;-74
2024/02/23 11:54:03;;;;;;;10.13;2.13;;;8.90;54.00;;;;;;4957106;28;20532;-74
2024/02/23 11:56:29;;;;;;;12.35;2.05;;;9.10;52.80;;;;;;4956596;28;20093;-74
2024/02/23 11:58:55;;;;;;;8.02;1.70;;;9.20;53.30;;;;;;4956214;28;20031;-74
2024/02/23 12:01:21;;;;;;;10.18;2.10;;;9.10;53.50;;;;;;4973491;28;20030;-74
2024/02/23 12:03:47;;;;;;;10.32;2.20;;;8.80;53.30;;;;;;4973844;28;20023;-73
2024/02/23 12:06:15;;;;;;;8.40;1.95;;;8.70;55.20;;;;;;4973583;28;20486;-73
2024/02/23 12:08:41;;;;;;;9.55;1.80;;;8.30;55.80;;;;;;4956602;28;20460;-74
2024/02/23 12:11:08;;;;;;;8.60;1.80;;;8.10;56.20;;;;;;4956864;28;20046;-74
2024/02/23 12:13:35;;;;;;;9.93;2.03;;;7.90;56.70;;;;;;4973917;28;20034;-74
2024/02/23 12:16:02;;;;;;;7.68;1.60;;;7.80;57.20;;;;;;4972608;28;20380;-73
2024/02/23 12:18:29;;;;;;;7.82;1.70;;;7.80;56.80;;;;;;4956644;28;20023;-73
2024/02/23 12:21:06;;;;;;;7.38;1.92;;;7.80;57.20;;;;;;4956507;28;20133;-73
2024/02/23 12:23:42;;;;;;;8.43;1.85;;;7.90;57.50;;;;;;4973802;28;20118;-73
2024/02/23 12:26:08;;;;;;;6.68;2.28;;;7.80;58.10;;;;;;4973805;28;20027;-73
2024/02/23 12:28:34;;;;;;;11.35;2.30;;;7.90;58.20;;;;;;4972852;28;20030;-73
2024/02/23 12:31:04;;;;;;;7.78;1.90;;;7.90;58.10;;;;;;4973920;28;20031;-73
2024/02/23 12:33:34;;;;;;;8.88;2.40;;;7.80;57.40;;;;;;4974033;28;20023;-73
2024/02/23 12:36:01;;;;;;;9.27;1.85;;;7.60;57.70;;;;;;4974004;28;20372;-72
2024/02/23 12:38:27;;;;;;;7.43;1.42;;;7.40;57.70;;;;;;4973821;28;20097;-73
2024/02/23 12:40:53;;;;;;;9.95;1.70;;;7.10;59.40;;;;;;4973649;28;20507;-73
2024/02/23 12:43:21;;;;;;;7.65;1.25;;;7.00;59.80;;;;;;4956201;28;20364;-73
2024/02/23 12:45:49;;;;;;;8.90;1.88;;;6.90;60.30;;;;;;4956648;28;20124;-74
2024/02/23 12:48:15;;;;;;;7.10;1.73;;;6.90;61.00;;;;;;4956176;28;20026;-73
2024/02/23 12:50:41;;;;;;;5.25;1.30;;;7.00;59.90;;;;;;4956232;28;20022;-74